Time;durP1;ratioP1;P1;durP2;ratioP2;P2;SDS_P1;SDS_P2;PMS_P1;PMS_P2;Temp;Humidity;BMP_temperature;BMP_pressure;BME280_temperature;BME280_humidity;BME280_pressure;Samples;Min_cycle;Max_cycle;Signal;HPM_P1;HPM_P2
2022/01/28 00:05:22;;;;;;;13.02;3.10;;;;;;;;;;5104334;28;20043;-65
2022/01/28 00:07:48;;;;;;;17.13;3.40;;;;;;;;;;5113097;28;20575;-65
2022/01/28 00:10:14;;;;;;;15.15;2.97;;;;;;;;;;5112607;28;20035;-66
2022/01/28 00:13:05;;;;;;;17.67;3.08;;;;;;;;;;5112181;28;20140;-66
2022/01/28 00:15:39;;;;;;;19.42;3.20;;;;;;;;;;5112047;28;20097;-65
2022/01/28 00:39:47;;;;;;;7.20;2.22;;;;;;;;;;5113186;28;20492;-64
2022/01/28 00:42:14;;;;;;;12.00;2.10;;;;;;;;;;5112874;28;20039;-64
2022/01/28 00:44:40;;;;;;;10.43;2.75;;;;;;;;;;5112672;28;20501;-65
2022/01/28 00:47:06;;;;;;;11.48;2.30;;;;;;;;;;5112594;28;20118;-66
2022/01/28 00:49:32;;;;;;;9.93;2.40;;;;;;;;;;5112271;28;20119;-65
2022/01/28 00:51:58;;;;;;;11.48;2.38;;;;;;;;;;5112155;28;20500;-65
2022/01/28 00:54:25;;;;;;;13.98;2.60;;;;;;;;;;5112732;28;20126;-65
2022/01/28 00:56:51;;;;;;;11.35;2.20;;;;;;;;;;5112512;28;20043;-64
2022/01/28 00:59:17;;;;;;;14.52;2.28;;;;;;;;;;5112221;28;20058;-65
2022/01/28 01:01:44;;;;;;;11.10;3.15;;;;;;;;;;5112436;28;20077;-65
2022/01/28 01:04:11;;;;;;;8.35;2.42;;;;;;;;;;5112243;28;20044;-65
2022/01/28 01:06:37;;;;;;;11.90;2.40;;;;;;;;;;5112723;28;20122;-65
2022/01/28 01:09:04;;;;;;;9.55;2.33;;;;;;;;;;5112274;28;20040;-65
2022/01/28 01:11:30;;;;;;;5.72;2.17;;;;;;;;;;5112374;28;20050;-65
2022/01/28 01:13:56;;;;;;;11.32;2.20;;;;;;;;;;5110997;28;20039;-65
2022/01/28 01:16:31;;;;;;;8.68;2.95;;;;;;;;;;5110765;28;20054;-64
2022/01/28 01:21:41;;;;;;;9.93;2.55;;;;;;;;;;5113249;28;20039;-65
2022/01/28 01:24:09;;;;;;;12.18;2.33;;;;;;;;;;5113265;28;20089;-65
2022/01/28 01:26:39;;;;;;;10.35;2.50;;;;;;;;;;5113217;28;20472;-65
2022/01/28 01:29:08;;;;;;;12.70;2.60;;;;;;;;;;5117113;28;20079;-64
2022/01/28 01:31:35;;;;;;;10.95;2.85;;;;;;;;;;5117094;28;20118;-64
2022/01/28 01:34:12;;;;;;;18.52;2.92;;;;;;;;;;5108426;22;20040;-63
2022/01/28 01:36:38;;;;;;;19.25;3.67;;;;;;;;;;5075831;28;20555;-66
2022/01/28 01:39:07;;;;;;;20.05;3.33;;;;;;;;;;5075683;28;20040;-66
2022/01/28 01:41:42;;;;;;;12.15;3.35;;;;;;;;;;5074839;28;20041;-66
2022/01/28 01:52:57;;;;;;;12.00;3.05;;;;;;;;;;5075424;28;20500;-65
2022/01/28 01:55:23;;;;;;;13.18;2.83;;;;;;;;;;5075305;28;20040;-65
2022/01/28 01:57:49;;;;;;;14.68;2.78;;;;;;;;;;5075297;28;20036;-65
2022/01/28 02:00:16;;;;;;;12.82;3.03;;;;;;;;;;5075273;28;20062;-65
2022/01/28 02:02:42;;;;;;;13.75;2.88;;;;;;;;;;5074645;28;20039;-64
2022/01/28 02:05:08;;;;;;;12.80;3.00;;;;;;;;;;5075052;28;20032;-64
2022/01/28 02:07:35;;;;;;;12.82;2.67;;;;;;;;;;5056848;28;20048;-65
2022/01/28 02:10:01;;;;;;;13.05;2.70;;;;;;;;;;5075621;28;20040;-65
2022/01/28 02:12:27;;;;;;;16.70;2.70;;;;;;;;;;5074830;28;20493;-65
2022/01/28 02:14:53;;;;;;;11.73;2.72;;;;;;;;;;5075497;28;20069;-63
2022/01/28 02:17:22;;;;;;;13.38;2.10;;;;;;;;;;5075912;28;20040;-64
2022/01/28 02:19:48;;;;;;;14.40;2.60;;;;;;;;;;5075229;28;20044;-65
2022/01/28 02:22:14;;;;;;;14.57;2.78;;;;;;;;;;5063382;28;20478;-66
2022/01/28 02:24:43;;;;;;;11.23;2.92;;;;;;;;;;5058130;28;20482;-66
2022/01/28 02:27:12;;;;;;;13.75;2.80;;;;;;;;;;5062823;28;20076;-66
2022/01/28 02:29:38;;;;;;;13.00;3.17;;;;;;;;;;5055025;28;20045;-66
2022/01/28 02:32:07;;;;;;;11.60;2.80;;;;;;;;;;5036490;28;20045;-66
2022/01/28 02:34:35;;;;;;;8.77;2.65;;;;;;;;;;5066950;28;20397;-66
2022/01/28 02:37:01;;;;;;;16.38;2.78;;;;;;;;;;5074343;28;20051;-66
2022/01/28 02:39:27;;;;;;;15.35;2.90;;;;;;;;;;5073870;28;20040;-65
2022/01/28 02:42:01;;;;;;;12.15;3.75;;;;;;;;;;5074378;28;20040;-65
2022/01/28 02:47:16;;;;;;;17.05;3.08;;;;;;;;;;5074502;28;20111;-62
2022/01/28 02:49:43;;;;;;;11.07;3.13;;;;;;;;;;5074534;28;20037;-67
2022/01/28 02:52:18;;;;;;;12.82;2.78;;;;;;;;;;5074226;28;20490;-64
2022/01/28 02:54:47;;;;;;;10.63;2.80;;;;;;;;;;5072805;28;20054;-65
2022/01/28 02:57:18;;;;;;;14.23;3.25;;;;;;;;;;5073280;28;20123;-65
2022/01/28 02:59:44;;;;;;;16.55;2.70;;;;;;;;;;5074386;28;20389;-65
2022/01/28 03:02:10;;;;;;;12.90;2.70;;;;;;;;;;5073469;28;20036;-65
2022/01/28 03:07:24;;;;;;;12.20;3.03;;;;;;;;;;5073987;28;20044;-65
2022/01/28 03:10:13;;;;;;;13.02;2.95;;;;;;;;;;5074027;28;20051;-65
2022/01/28 03:12:59;;;;;;;17.60;3.75;;;;;;;;;;5073476;28;20131;-65
2022/01/28 03:15:25;;;;;;;14.98;2.70;;;;;;;;;;5073720;28;20250;-65
2022/01/28 03:18:13;;;;;;;11.25;2.63;;;;;;;;;;5056335;28;20044;-67
2022/01/28 03:20:56;;;;;;;15.23;3.28;;;;;;;;;;5073595;28;20044;-67
2022/01/28 03:23:22;;;;;;;15.60;3.20;;;;;;;;;;5073051;28;20044;-65
2022/01/28 03:25:49;;;;;;;17.23;3.35;;;;;;;;;;5073656;28;20040;-66
2022/01/28 03:28:19;;;;;;;13.02;2.33;;;;;;;;;;5073709;28;20577;-66
2022/01/28 03:30:45;;;;;;;15.73;3.17;;;;;;;;;;5073565;28;20048;-66
2022/01/28 03:33:11;;;;;;;18.05;2.60;;;;;;;;;;5073079;28;20040;-65
2022/01/28 03:35:37;;;;;;;22.70;3.72;;;;;;;;;;5073466;28;20072;-65
2022/01/28 03:38:07;;;;;;;12.23;2.50;;;;;;;;;;5073386;28;20036;-66
2022/01/28 03:40:36;;;;;;;14.30;2.70;;;;;;;;;;5073161;28;20064;-66
2022/01/28 03:43:02;;;;;;;18.10;2.85;;;;;;;;;;5073227;28;20374;-65
2022/01/28 03:45:29;;;;;;;19.20;3.63;;;;;;;;;;5073128;28;20048;-66
2022/01/28 03:47:55;;;;;;;12.82;2.75;;;;;;;;;;5073141;28;20108;-66
2022/01/28 03:50:21;;;;;;;13.52;3.40;;;;;;;;;;5073438;28;20076;-66
2022/01/28 03:52:47;;;;;;;14.05;3.13;;;;;;;;;;5072394;28;20043;-63
2022/01/28 03:55:13;;;;;;;14.38;2.65;;;;;;;;;;5072802;28;20040;-66
2022/01/28 03:57:40;;;;;;;11.02;3.08;;;;;;;;;;5073050;28;20041;-64
2022/01/28 04:00:06;;;;;;;14.05;3.60;;;;;;;;;;5072704;28;20401;-64
2022/01/28 04:02:36;;;;;;;18.92;3.90;;;;;;;;;;5072446;28;20075;-67
2022/01/28 04:13:23;;;;;;;17.52;3.67;;;;;;;;;;5072302;28;20131;-64
2022/01/28 04:18:34;;;;;;;16.20;3.15;;;;;;;;;;5072563;28;20048;-65
2022/01/28 04:21:00;;;;;;;15.05;3.13;;;;;;;;;;5072132;28;20055;-63
2022/01/28 04:23:26;;;;;;;17.85;3.40;;;;;;;;;;5072018;28;20040;-64
2022/01/28 04:25:52;;;;;;;19.15;4.32;;;;;;;;;;5072380;28;20040;-64
2022/01/28 04:28:18;;;;;;;16.88;4.30;;;;;;;;;;5072735;28;20043;-64
2022/01/28 04:30:44;;;;;;;17.30;3.75;;;;;;;;;;5073198;28;20048;-65
2022/01/28 04:33:10;;;;;;;18.83;4.00;;;;;;;;;;5072759;28;20045;-64
2022/01/28 04:35:36;;;;;;;20.52;3.85;;;;;;;;;;5073329;28;20060;-65
2022/01/28 04:41:00;;;;;;;20.17;3.67;;;;;;;;;;5092654;28;20090;-65
2022/01/28 04:43:34;;;;;;;21.98;3.70;;;;;;;;;;5092693;28;20089;-64
2022/01/28 04:46:11;;;;;;;17.77;4.45;;;;;;;;;;5092404;28;20376;-64
2022/01/28 04:48:46;;;;;;;20.17;4.30;;;;;;;;;;5092719;28;20052;-65
2022/01/28 04:59:18;;;;;;;22.83;3.97;;;;;;;;;;5092773;28;20044;-65
2022/01/28 05:04:26;;;;;;;18.75;3.85;;;;;;;;;;5117725;22;20883;-83
2022/01/28 05:07:25;;;;;;;22.63;4.22;;;;;;;;;;5114915;28;20052;-87
2022/01/28 05:15:43;;;;;;;21.88;3.58;;;;;;;;;;5100746;28;20076;-87
2022/01/28 05:28:42;;;;;;;15.85;3.58;;;;;;;;;;5064081;28;20107;-86
2022/01/28 05:31:08;;;;;;;13.98;4.65;;;;;;;;;;5080336;28;20056;-86
2022/01/28 05:33:35;;;;;;;22.83;3.58;;;;;;;;;;5048192;28;20048;-86
2022/01/28 05:36:01;;;;;;;28.45;4.32;;;;;;;;;;5047463;28;20045;-86
2022/01/28 05:38:27;;;;;;;19.70;4.80;;;;;;;;;;5047921;28;20072;-86
2022/01/28 05:40:53;;;;;;;17.65;3.30;;;;;;;;;;5047391;28;20486;-86
2022/01/28 05:43:19;;;;;;;17.02;3.90;;;;;;;;;;5063380;28;20082;-86
2022/01/28 05:45:45;;;;;;;15.02;4.22;;;;;;;;;;5063649;28;20041;-87
2022/01/28 05:48:11;;;;;;;20.38;4.47;;;;;;;;;;5064067;28;20130;-87
2022/01/28 05:50:37;;;;;;;19.02;3.70;;;;;;;;;;5079896;28;20079;-87
2022/01/28 05:53:04;;;;;;;17.90;4.97;;;;;;;;;;5063451;28;20498;-86
2022/01/28 05:55:30;;;;;;;19.13;3.63;;;;;;;;;;5063222;28;20051;-86
2022/01/28 05:57:56;;;;;;;14.02;3.42;;;;;;;;;;5047008;28;20036;-86
2022/01/28 06:00:22;;;;;;;19.92;4.13;;;;;;;;;;5047462;28;20047;-86
2022/01/28 06:02:48;;;;;;;18.45;3.85;;;;;;;;;;5078744;28;20451;-85
2022/01/28 06:05:15;;;;;;;14.23;3.63;;;;;;;;;;5083808;28;20012;-86
2022/01/28 06:07:44;;;;;;;20.13;4.38;;;;;;;;;;5077185;28;20047;-86
2022/01/28 06:10:11;;;;;;;24.83;5.10;;;;;;;;;;5068312;28;20045;-87
2022/01/28 06:12:41;;;;;;;22.08;3.83;;;;;;;;;;5063337;28;20047;-86
2022/01/28 06:15:08;;;;;;;20.25;3.88;;;;;;;;;;5080678;28;20040;-86
2022/01/28 06:17:34;;;;;;;24.08;4.05;;;;;;;;;;5072958;28;20089;-86
2022/01/28 06:20:01;;;;;;;18.92;4.43;;;;;;;;;;5082667;28;20032;-85
2022/01/28 06:22:27;;;;;;;21.45;4.53;;;;;;;;;;5077228;28;20124;-86
2022/01/28 06:24:53;;;;;;;19.35;4.00;;;;;;;;;;5080976;28;20064;-87
2022/01/28 06:27:19;;;;;;;14.35;4.15;;;;;;;;;;5070478;28;20123;-87
2022/01/28 06:29:45;;;;;;;17.58;4.47;;;;;;;;;;5063337;28;20055;-86
2022/01/28 06:32:11;;;;;;;22.63;4.78;;;;;;;;;;5045997;28;20045;-87
2022/01/28 06:34:38;;;;;;;16.77;3.80;;;;;;;;;;5062479;28;20041;-86
2022/01/28 06:37:05;;;;;;;17.58;3.85;;;;;;;;;;5081198;28;20048;-87
2022/01/28 06:39:32;;;;;;;24.15;5.03;;;;;;;;;;5080287;28;20041;-87
2022/01/28 06:41:59;;;;;;;17.67;4.30;;;;;;;;;;5062795;28;20394;-87
2022/01/28 06:44:25;;;;;;;19.77;4.20;;;;;;;;;;5090092;28;20447;-86
2022/01/28 06:46:51;;;;;;;18.63;4.28;;;;;;;;;;5082752;28;20058;-87
2022/01/28 06:49:18;;;;;;;19.25;4.18;;;;;;;;;;5066164;28;20267;-86
2022/01/28 06:51:44;;;;;;;20.40;4.18;;;;;;;;;;5100458;28;20379;-87
2022/01/28 06:54:10;;;;;;;20.45;3.92;;;;;;;;;;5081749;28;20039;-87
2022/01/28 06:56:36;;;;;;;17.42;4.22;;;;;;;;;;5066178;28;20154;-87
2022/01/28 06:59:02;;;;;;;21.35;4.35;;;;;;;;;;5065897;28;20042;-86
2022/01/28 07:01:28;;;;;;;20.38;4.22;;;;;;;;;;5065713;28;20040;-86
2022/01/28 07:03:54;;;;;;;14.02;3.53;;;;;;;;;;5082660;28;20516;-86
2022/01/28 07:06:22;;;;;;;24.23;4.32;;;;;;;;;;5082598;28;20047;-86
2022/01/28 07:08:48;;;;;;;16.42;3.65;;;;;;;;;;5098835;28;20048;-86
2022/01/28 07:11:14;;;;;;;18.52;3.70;;;;;;;;;;5082472;28;20066;-86
2022/01/28 07:13:40;;;;;;;17.00;4.85;;;;;;;;;;5100982;28;20090;-86
2022/01/28 07:16:06;;;;;;;15.57;3.92;;;;;;;;;;5099671;28;20039;-87
2022/01/28 07:18:32;;;;;;;19.60;4.10;;;;;;;;;;5065700;28;20050;-87
2022/01/28 07:20:58;;;;;;;21.08;5.07;;;;;;;;;;5065862;28;20096;-89
2022/01/28 07:23:28;;;;;;;21.30;4.13;;;;;;;;;;5081665;28;20047;-87
2022/01/28 07:25:54;;;;;;;17.83;4.25;;;;;;;;;;5085374;28;20046;-88
2022/01/28 07:28:22;;;;;;;14.57;3.50;;;;;;;;;;5085031;28;20068;-92
2022/01/28 07:30:48;;;;;;;21.85;4.32;;;;;;;;;;5118600;28;20044;-92
2022/01/28 07:33:15;;;;;;;18.35;4.60;;;;;;;;;;5092338;28;20532;-89
2022/01/28 07:35:41;;;;;;;17.70;3.85;;;;;;;;;;5081726;28;20052;-89
2022/01/28 07:38:07;;;;;;;20.35;4.05;;;;;;;;;;5080631;28;20040;-89
2022/01/28 07:40:33;;;;;;;18.42;4.40;;;;;;;;;;5064367;28;20035;-89
2022/01/28 07:42:59;;;;;;;22.45;4.10;;;;;;;;;;5064312;28;20039;-89
2022/01/28 07:45:25;;;;;;;20.85;3.83;;;;;;;;;;5075640;28;20110;-90
2022/01/28 07:47:52;;;;;;;18.05;4.05;;;;;;;;;;5101762;28;20044;-89
2022/01/28 07:50:20;;;;;;;22.63;4.28;;;;;;;;;;5097470;28;20044;-89
2022/01/28 07:52:49;;;;;;;13.80;3.72;;;;;;;;;;5067503;28;20036;-89
2022/01/28 07:55:16;;;;;;;16.27;4.88;;;;;;;;;;5066303;28;20032;-89
2022/01/28 07:57:42;;;;;;;23.13;4.25;;;;;;;;;;5065887;28;20044;-89
2022/01/28 08:00:12;;;;;;;18.13;3.65;;;;;;;;;;5066187;28;20129;-89
2022/01/28 08:02:42;;;;;;;17.58;3.55;;;;;;;;;;5099093;28;20039;-89
2022/01/28 08:05:09;;;;;;;22.90;4.00;;;;;;;;;;5066145;28;20094;-88
2022/01/28 08:07:35;;;;;;;20.88;4.35;;;;;;;;;;5067704;28;20046;-89
2022/01/28 08:10:01;;;;;;;17.95;4.00;;;;;;;;;;5071879;28;20056;-90
2022/01/28 08:12:35;;;;;;;19.10;4.00;;;;;;;;;;5100738;28;20024;-91
2022/01/28 08:15:01;;;;;;;;;;;;;;;;;;5119035;28;20092;-91
2022/01/28 08:17:27;;;;;;;17.42;3.60;;;;;;;;;;5100607;28;19908;-90
2022/01/28 08:19:58;;;;;;;18.85;4.03;;;;;;;;;;5085996;28;20036;-89
2022/01/28 08:22:24;;;;;;;23.27;4.38;;;;;;;;;;5066075;28;20040;-89
2022/01/28 08:24:50;;;;;;;21.70;4.18;;;;;;;;;;5082096;28;20088;-88
2022/01/28 08:27:16;;;;;;;23.65;5.10;;;;;;;;;;5082650;28;20051;-88
2022/01/28 08:29:42;;;;;;;18.98;4.38;;;;;;;;;;5065508;28;20075;-88
2022/01/28 08:32:08;;;;;;;15.75;3.83;;;;;;;;;;5065423;28;20044;-89
2022/01/28 08:34:40;;;;;;;13.02;3.10;;;;;;;;;;5065214;28;20512;-88
2022/01/28 08:37:06;;;;;;;13.65;4.88;;;;;;;;;;5064630;28;20093;-88
2022/01/28 08:39:34;;;;;;;19.98;4.30;;;;;;;;;;5098403;28;20043;-89
2022/01/28 08:42:01;;;;;;;14.15;3.58;;;;;;;;;;5098721;28;20331;-88
2022/01/28 08:44:28;;;;;;;19.77;4.38;;;;;;;;;;5081339;28;20035;-88
2022/01/28 08:46:54;;;;;;;14.80;4.10;;;;;;;;;;5056487;28;20144;-89
2022/01/28 08:49:20;;;;;;;19.77;3.42;;;;;;;;;;5070176;28;20044;-89
2022/01/28 08:51:48;;;;;;;13.52;3.83;;;;;;;;;;5046262;28;20410;-89
2022/01/28 08:54:14;;;;;;;16.08;3.92;;;;;;;;;;5046276;28;20049;-89
2022/01/28 08:56:41;;;;;;;16.65;3.65;;;;;;;;;;5044979;28;20402;-89
2022/01/28 08:59:10;;;;;;;9.98;3.22;;;;;;;;;;5045433;28;20746;-89
2022/01/28 09:01:38;;;;;;;22.08;4.07;;;;;;;;;;5061278;28;20044;-90
2022/01/28 09:04:04;;;;;;;20.08;3.85;;;;;;;;;;5062444;28;20068;-89
2022/01/28 09:06:33;;;;;;;17.70;3.55;;;;;;;;;;5061052;28;20131;-89
2022/01/28 09:09:01;;;;;;;18.30;4.78;;;;;;;;;;5044488;28;20064;-89
2022/01/28 09:11:47;;;;;;;15.75;3.63;;;;;;;;;;5044376;28;20086;-90
2022/01/28 09:14:19;;;;;;;15.20;3.38;;;;;;;;;;5077270;28;20063;-89
2022/01/28 09:16:45;;;;;;;14.25;3.25;;;;;;;;;;5043768;28;20096;-89
2022/01/28 09:19:14;;;;;;;23.08;5.07;;;;;;;;;;5060250;28;20044;-90
2022/01/28 09:21:41;;;;;;;16.20;4.00;;;;;;;;;;5043357;28;20079;-89
2022/01/28 09:24:07;;;;;;;18.13;3.90;;;;;;;;;;5059680;28;20036;-90
2022/01/28 09:26:33;;;;;;;19.10;3.97;;;;;;;;;;5076539;28;20040;-90
2022/01/28 09:29:07;;;;;;;14.85;3.55;;;;;;;;;;5050037;28;20052;-89
2022/01/28 09:31:41;;;;;;;15.65;3.72;;;;;;;;;;5062470;28;20036;-91
2022/01/28 09:34:07;;;;;;;20.80;4.40;;;;;;;;;;5076693;28;20048;-90
2022/01/28 09:36:33;;;;;;;18.30;3.60;;;;;;;;;;5044783;28;20098;-89
2022/01/28 09:39:00;;;;;;;15.65;3.85;;;;;;;;;;5077788;28;20048;-90
2022/01/28 09:41:26;;;;;;;22.83;4.53;;;;;;;;;;5061591;28;20128;-90
2022/01/28 09:43:57;;;;;;;16.60;4.05;;;;;;;;;;5043355;28;20455;-89
2022/01/28 09:46:23;;;;;;;15.98;4.47;;;;;;;;;;5043371;28;20062;-90
2022/01/28 09:48:49;;;;;;;14.30;3.47;;;;;;;;;;5080182;28;20032;-88
2022/01/28 09:51:15;;;;;;;19.40;3.63;;;;;;;;;;5046337;28;20402;-88
2022/01/28 09:53:41;;;;;;;19.90;3.80;;;;;;;;;;5046551;28;20043;-88
2022/01/28 09:56:08;;;;;;;21.58;4.85;;;;;;;;;;5046538;28;20058;-89
2022/01/28 09:58:36;;;;;;;18.15;3.85;;;;;;;;;;5064100;28;20099;-88
2022/01/28 10:01:03;;;;;;;12.88;3.70;;;;;;;;;;5083219;28;20040;-88
2022/01/28 10:03:29;;;;;;;20.42;4.45;;;;;;;;;;5083426;28;20050;-91
2022/01/28 10:05:57;;;;;;;20.02;4.22;;;;;;;;;;4985878;28;1878928;-90
2022/01/28 10:08:24;;;;;;;14.13;4.20;;;;;;;;;;5067503;28;20059;-89
2022/01/28 10:10:50;;;;;;;14.68;4.00;;;;;;;;;;5050591;28;20102;-89
2022/01/28 10:13:26;;;;;;;17.95;3.90;;;;;;;;;;5047856;28;20048;-89
2022/01/28 10:16:22;;;;;;;15.85;3.70;;;;;;;;;;5047543;28;20102;-90
2022/01/28 10:18:55;;;;;;;14.98;3.42;;;;;;;;;;5056686;28;20134;-89
2022/01/28 10:21:30;;;;;;;15.40;3.60;;;;;;;;;;5048305;28;20047;-89
2022/01/28 10:23:56;;;;;;;19.35;3.63;;;;;;;;;;5047959;28;20044;-89
2022/01/28 10:26:32;;;;;;;15.80;4.80;;;;;;;;;;5048382;28;20048;-88
2022/01/28 10:28:59;;;;;;;19.75;4.70;;;;;;;;;;5048030;28;20127;-88
2022/01/28 10:31:38;;;;;;;16.15;3.60;;;;;;;;;;5048267;28;20048;-88
2022/01/28 10:34:14;;;;;;;18.65;5.13;;;;;;;;;;5048071;28;20083;-87
2022/01/28 10:36:43;;;;;;;17.70;3.40;;;;;;;;;;5064480;28;20414;-89
2022/01/28 10:39:15;;;;;;;18.63;4.05;;;;;;;;;;5047299;28;20040;-89
2022/01/28 10:41:52;;;;;;;14.40;3.80;;;;;;;;;;5064383;28;20049;-87
2022/01/28 10:44:19;;;;;;;19.05;4.05;;;;;;;;;;5048018;28;20071;-89
2022/01/28 10:47:03;;;;;;;14.60;3.78;;;;;;;;;;5064474;28;20086;-88
2022/01/28 10:49:30;;;;;;;16.58;4.95;;;;;;;;;;5047919;28;20055;-90
2022/01/28 10:52:02;;;;;;;15.77;4.90;;;;;;;;;;5047148;28;20045;-89
2022/01/28 10:54:28;;;;;;;15.18;4.05;;;;;;;;;;5047764;28;20080;-90
2022/01/28 10:57:01;;;;;;;18.48;4.03;;;;;;;;;;5064292;28;20125;-88
2022/01/28 10:59:30;;;;;;;23.58;4.82;;;;;;;;;;5045555;28;20041;-91
2022/01/28 11:01:57;;;;;;;13.93;4.18;;;;;;;;;;5063055;28;20036;-90
2022/01/28 11:04:24;;;;;;;13.93;4.43;;;;;;;;;;5084976;28;20110;-89
2022/01/28 11:06:55;;;;;;;18.80;3.92;;;;;;;;;;5080168;28;20499;-89
2022/01/28 11:09:22;;;;;;;19.77;4.72;;;;;;;;;;5064301;28;20372;-89
2022/01/28 11:11:51;;;;;;;14.75;4.20;;;;;;;;;;5064817;28;20037;-88
2022/01/28 11:14:18;;;;;;;18.25;4.78;;;;;;;;;;5061222;28;20082;-89
2022/01/28 11:16:47;;;;;;;15.73;4.40;;;;;;;;;;5065286;28;20051;-90
2022/01/28 11:19:18;;;;;;;20.52;4.63;;;;;;;;;;5090143;28;20040;-88
2022/01/28 11:21:48;;;;;;;22.73;4.70;;;;;;;;;;5082774;28;20037;-90
2022/01/28 11:24:20;;;;;;;15.18;3.95;;;;;;;;;;5082092;28;20036;-89
2022/01/28 11:26:55;;;;;;;12.27;3.90;;;;;;;;;;5064292;28;20571;-90
2022/01/28 11:29:28;;;;;;;12.60;3.60;;;;;;;;;;5047366;28;20579;-89
2022/01/28 11:32:17;;;;;;;16.73;4.43;;;;;;;;;;5082392;28;20050;-89
2022/01/28 11:34:56;;;;;;;19.75;4.28;;;;;;;;;;5095523;28;20024;-92
2022/01/28 11:37:29;;;;;;;20.98;4.13;;;;;;;;;;5097413;28;20032;-90
2022/01/28 11:40:07;;;;;;;19.53;4.77;;;;;;;;;;5083775;28;20060;-89
2022/01/28 11:42:36;;;;;;;20.60;4.25;;;;;;;;;;5079095;28;20363;-89
2022/01/28 11:45:07;;;;;;;13.02;4.03;;;;;;;;;;5081494;28;20040;-78
2022/01/28 11:47:35;;;;;;;18.58;3.67;;;;;;;;;;5081376;28;20032;-86
2022/01/28 11:50:08;;;;;;;17.95;4.03;;;;;;;;;;5082698;28;20039;-85
2022/01/28 11:52:40;;;;;;;14.95;3.25;;;;;;;;;;5099785;28;20468;-86
2022/01/28 11:55:20;;;;;;;15.98;4.22;;;;;;;;;;5083000;28;20048;-85
2022/01/28 11:57:51;;;;;;;18.83;3.80;;;;;;;;;;5082173;28;20402;-86
2022/01/28 12:00:22;;;;;;;15.77;3.67;;;;;;;;;;5082212;28;20425;-87
2022/01/28 12:02:50;;;;;;;15.02;4.18;;;;;;;;;;5079157;28;20071;-86
2022/01/28 12:05:32;;;;;;;18.92;3.83;;;;;;;;;;5061617;28;20059;-86
2022/01/28 12:08:00;;;;;;;14.52;3.83;;;;;;;;;;5076590;28;20036;-86
2022/01/28 12:10:27;;;;;;;17.30;4.28;;;;;;;;;;5074447;28;20083;-85
2022/01/28 12:13:02;;;;;;;18.23;3.47;;;;;;;;;;5074758;28;20035;-86
2022/01/28 12:15:30;;;;;;;16.35;3.40;;;;;;;;;;5078302;28;20044;-86
2022/01/28 12:18:10;;;;;;;15.02;3.40;;;;;;;;;;5070865;28;20032;-87
2022/01/28 12:20:48;;;;;;;13.77;3.83;;;;;;;;;;5062698;28;20040;-91
2022/01/28 12:23:14;;;;;;;14.27;4.10;;;;;;;;;;5070140;28;20619;-87
2022/01/28 12:25:40;;;;;;;11.88;3.63;;;;;;;;;;5073626;28;20084;-88
2022/01/28 12:28:28;;;;;;;18.02;3.95;;;;;;;;;;5093181;28;20036;-86
2022/01/28 12:31:32;;;;;;;13.65;3.65;;;;;;;;;;5061635;28;20066;-87
2022/01/28 12:33:59;;;;;;;15.93;3.83;;;;;;;;;;5064050;28;20033;-86
2022/01/28 12:36:34;;;;;;;16.83;3.95;;;;;;;;;;5068020;28;20135;-85
2022/01/28 12:39:51;;;;;;;14.13;3.50;;;;;;;;;;5085912;28;20470;-85
2022/01/28 12:42:32;;;;;;;13.52;3.30;;;;;;;;;;5045598;28;20449;-84
2022/01/28 12:44:59;;;;;;;15.00;3.65;;;;;;;;;;5057238;28;20059;-86
2022/01/28 12:47:33;;;;;;;14.32;4.50;;;;;;;;;;5093889;28;20069;-85
2022/01/28 12:50:19;;;;;;;;;;;;;;;;;;;;;
2022/01/28 12:52:46;;;;;;;14.68;4.15;;;;;;;;;;5064312;28;20554;-85
2022/01/28 12:55:24;;;;;;;13.38;3.33;;;;;;;;;;5078512;28;20032;-84
2022/01/28 12:57:53;;;;;;;11.75;3.50;;;;;;;;;;5065865;28;20100;-84
2022/01/28 13:00:19;;;;;;;13.60;3.40;;;;;;;;;;5073513;28;20490;-85
2022/01/28 13:02:51;;;;;;;14.05;3.22;;;;;;;;;;5069958;28;20372;-85
2022/01/28 13:05:33;;;;;;;8.95;3.38;;;;;;;;;;5091827;28;20051;-84
2022/01/28 13:10:44;;;;;;;12.57;2.90;;;;;;;;;;5091012;28;20094;-84
2022/01/28 13:13:12;;;;;;;14.13;3.78;;;;;;;;;;5084246;28;20036;-84
2022/01/28 13:15:39;;;;;;;11.40;3.00;;;;;;;;;;5083571;28;20055;-85
2022/01/28 13:18:05;;;;;;;11.63;3.53;;;;;;;;;;5071454;28;20520;-85
2022/01/28 13:20:41;;;;;;;17.33;3.22;;;;;;;;;;5069131;28;20062;-84
2022/01/28 13:23:08;;;;;;;13.82;3.20;;;;;;;;;;5074847;28;20040;-83
2022/01/28 13:25:34;;;;;;;11.32;3.33;;;;;;;;;;5073690;28;20044;-86
2022/01/28 13:28:03;;;;;;;13.07;3.78;;;;;;;;;;5097595;28;20093;-85
2022/01/28 13:30:39;;;;;;;15.38;3.45;;;;;;;;;;5070313;28;20525;-84
2022/01/28 13:33:06;;;;;;;18.90;3.42;;;;;;;;;;5074831;28;20044;-80
2022/01/28 13:35:34;;;;;;;12.57;3.15;;;;;;;;;;5101633;28;20024;-81
2022/01/28 13:38:05;;;;;;;9.65;3.53;;;;;;;;;;5111653;28;20020;-85
2022/01/28 13:40:36;;;;;;;13.77;3.28;;;;;;;;;;5070593;28;20058;-85
2022/01/28 13:43:06;;;;;;;11.93;3.47;;;;;;;;;;5090134;28;20095;-85
2022/01/28 13:45:38;;;;;;;19.02;3.78;;;;;;;;;;5069583;28;20044;-84
2022/01/28 13:48:08;;;;;;;12.65;3.33;;;;;;;;;;5098624;28;20076;-83
2022/01/28 13:50:36;;;;;;;17.08;3.95;;;;;;;;;;5068583;28;20140;-83
2022/01/28 13:53:22;;;;;;;15.15;3.97;;;;;;;;;;5118223;28;20084;-83
2022/01/28 13:55:49;;;;;;;17.15;4.75;;;;;;;;;;5083327;28;20051;-84
2022/01/28 13:58:18;;;;;;;21.42;5.07;;;;;;;;;;5086288;28;20064;-85
2022/01/28 14:00:51;;;;;;;12.10;3.95;;;;;;;;;;5068425;28;20545;-85
2022/01/28 14:03:21;;;;;;;13.48;4.07;;;;;;;;;;5068222;28;20072;-86
2022/01/28 14:05:51;;;;;;;17.17;4.68;;;;;;;;;;5069344;28;20054;-86
2022/01/28 14:08:36;;;;;;;17.63;4.22;;;;;;;;;;5085883;28;20051;-84
2022/01/28 14:11:18;;;;;;;17.10;4.22;;;;;;;;;;5087183;28;20054;-84
2022/01/28 14:13:44;;;;;;;13.93;4.00;;;;;;;;;;5058765;28;20040;-84
2022/01/28 14:16:15;;;;;;;12.80;4.30;;;;;;;;;;5068905;28;20051;-92
2022/01/28 14:18:43;;;;;;;14.57;3.72;;;;;;;;;;5099886;22;20054;-64
2022/01/28 14:21:09;;;;;;;14.13;3.95;;;;;;;;;;5063367;28;20488;-64
2022/01/28 14:23:44;;;;;;;16.30;4.20;;;;;;;;;;5115203;28;20043;-65
2022/01/28 14:26:10;;;;;;;15.55;3.90;;;;;;;;;;5114766;28;20031;-64
2022/01/28 14:28:48;;;;;;;12.15;3.15;;;;;;;;;;5112471;28;20089;-65
2022/01/28 14:31:14;;;;;;;11.77;3.38;;;;;;;;;;5093963;28;20040;-65
2022/01/28 14:33:44;;;;;;;17.48;4.13;;;;;;;;;;5075757;28;20039;-65
2022/01/28 14:36:11;;;;;;;15.30;3.78;;;;;;;;;;5095016;28;20121;-64
2022/01/28 14:38:37;;;;;;;12.32;3.63;;;;;;;;;;5105957;22;20071;-65
2022/01/28 14:41:03;;;;;;;18.20;4.13;;;;;;;;;;5112453;28;20100;-64
2022/01/28 14:43:29;;;;;;;32.70;9.25;;;;;;;;;;5113640;28;20043;-65
2022/01/28 14:45:55;;;;;;;20.77;5.85;;;;;;;;;;5114213;28;20044;-65
2022/01/28 14:48:22;;;;;;;17.65;5.20;;;;;;;;;;5101110;28;20481;-64
2022/01/28 14:50:49;;;;;;;18.10;3.70;;;;;;;;;;5092145;28;20506;-65
2022/01/28 14:53:15;;;;;;;14.52;3.50;;;;;;;;;;5095698;28;20396;-65
2022/01/28 14:55:43;;;;;;;11.13;3.20;;;;;;;;;;5114398;28;20058;-65
2022/01/28 14:58:09;;;;;;;12.13;2.70;;;;;;;;;;5090855;28;20050;-64
2022/01/28 15:00:35;;;;;;;10.05;2.83;;;;;;;;;;5092590;28;20032;-64
2022/01/28 15:03:02;;;;;;;16.20;3.80;;;;;;;;;;5097138;28;20484;-64
2022/01/28 15:05:29;;;;;;;14.50;3.17;;;;;;;;;;5110342;28;20110;-65
2022/01/28 15:07:55;;;;;;;11.05;3.13;;;;;;;;;;5094254;28;20051;-65
2022/01/28 15:10:27;;;;;;;12.05;3.42;;;;;;;;;;5094220;28;20128;-64
2022/01/28 15:12:54;;;;;;;13.52;3.60;;;;;;;;;;5094454;28;20542;-64
2022/01/28 15:15:20;;;;;;;15.60;3.50;;;;;;;;;;5094249;28;20495;-65
2022/01/28 15:17:46;;;;;;;13.43;2.95;;;;;;;;;;5093515;28;20071;-64
2022/01/28 15:20:12;;;;;;;14.65;3.35;;;;;;;;;;5085664;28;20043;-66
2022/01/28 15:22:40;;;;;;;10.90;3.15;;;;;;;;;;5114226;28;20089;-64
2022/01/28 15:25:06;;;;;;;11.60;3.42;;;;;;;;;;5096291;28;20036;-64
2022/01/28 15:27:32;;;;;;;15.20;3.60;;;;;;;;;;5113007;28;20073;-64
2022/01/28 15:30:19;;;;;;;9.38;2.45;;;;;;;;;;5093802;28;20040;-64
2022/01/28 15:35:51;;;;;;;12.48;3.25;;;;;;;;;;5093551;28;20040;-65
2022/01/28 15:38:20;;;;;;;21.02;6.10;;;;;;;;;;5102560;28;20061;-65
2022/01/28 15:40:52;;;;;;;18.15;7.63;;;;;;;;;;5098549;28;20075;-64
2022/01/28 15:43:23;;;;;;;15.15;5.53;;;;;;;;;;5092726;28;20481;-63
2022/01/28 15:46:06;;;;;;;12.10;5.20;;;;;;;;;;5092766;28;20044;-65
2022/01/28 15:48:34;;;;;;;11.07;5.18;;;;;;;;;;5093883;28;20040;-65
2022/01/28 15:51:03;;;;;;;15.85;4.68;;;;;;;;;;5093624;28;20040;-64
2022/01/28 15:53:34;;;;;;;11.63;3.72;;;;;;;;;;5093890;28;20050;-64
2022/01/28 15:56:01;;;;;;;14.38;3.63;;;;;;;;;;5093091;28;20047;-64
2022/01/28 15:58:28;;;;;;;11.77;3.78;;;;;;;;;;5077849;28;20044;-64
2022/01/28 16:00:55;;;;;;;10.75;4.03;;;;;;;;;;5101971;28;20043;-64
2022/01/28 16:03:21;;;;;;;17.77;7.05;;;;;;;;;;5079411;28;20043;-65
2022/01/28 16:05:47;;;;;;;12.27;5.18;;;;;;;;;;5093398;28;20054;-66
2022/01/28 16:08:13;;;;;;;9.50;3.08;;;;;;;;;;5077250;28;20039;-64
2022/01/28 16:11:02;;;;;;;10.23;3.42;;;;;;;;;;5079293;27;20390;-66
2022/01/28 16:13:40;;;;;;;8.98;2.88;;;;;;;;;;5082330;27;20043;-65